sensor_id;sensor_type;location;lat;lon;timestamp;temperature;humidity
20815;DHT22;10568;48.176;16.316;2023-02-26T00:01:33;2.70;99.90
20815;DHT22;10568;48.176;16.316;2023-02-26T00:04:01;2.70;99.90
20815;DHT22;10568;48.176;16.316;2023-02-26T00:06:28;2.70;99.90
20815;DHT22;10568;48.176;16.316;2023-02-26T00:08:54;2.70;99.90
20815;DHT22;10568;48.176;16.316;2023-02-26T00:11:21;2.70;99.90
20815;DHT22;10568;48.176;16.316;2023-02-26T00:13:47;2.70;99.90
20815;DHT22;10568;48.176;16.316;2023-02-26T00:16:25;2.70;99.90
20815;DHT22;10568;48.176;16.316;2023-02-26T00:18:52;2.70;99.90
20815;DHT22;10568;48.176;16.316;2023-02-26T00:21:20;2.70;99.90
20815;DHT22;10568;48.176;16.316;2023-02-26T00:23:47;2.70;99.90
20815;DHT22;10568;48.176;16.316;2023-02-26T00:26:12;2.70;99.90
20815;DHT22;10568;48.176;16.316;2023-02-26T00:28:38;2.60;99.90
20815;DHT22;10568;48.176;16.316;2023-02-26T00:31:05;2.70;99.90
20815;DHT22;10568;48.176;16.316;2023-02-26T00:33:32;2.70;99.90
20815;DHT22;10568;48.176;16.316;2023-02-26T00:36:23;2.70;99.90
20815;DHT22;10568;48.176;16.316;2023-02-26T00:41:53;2.60;99.90
20815;DHT22;10568;48.176;16.316;2023-02-26T00:44:20;2.60;99.90
20815;DHT22;10568;48.176;16.316;2023-02-26T00:46:59;2.60;99.90
20815;DHT22;10568;48.176;16.316;2023-02-26T00:55:10;2.50;99.90
20815;DHT22;10568;48.176;16.316;2023-02-26T00:57:36;2.50;99.90
20815;DHT22;10568;48.176;16.316;2023-02-26T01:00:04;2.50;99.90
20815;DHT22;10568;48.176;16.316;2023-02-26T01:02:36;2.50;99.90
20815;DHT22;10568;48.176;16.316;2023-02-26T01:05:03;2.50;99.90
20815;DHT22;10568;48.176;16.316;2023-02-26T01:10:17;2.50;99.90
20815;DHT22;10568;48.176;16.316;2023-02-26T01:12:43;2.40;99.90
20815;DHT22;10568;48.176;16.316;2023-02-26T01:15:09;2.40;99.90
20815;DHT22;10568;48.176;16.316;2023-02-26T01:17:42;2.40;99.90
20815;DHT22;10568;48.176;16.316;2023-02-26T01:20:21;2.40;99.90
20815;DHT22;10568;48.176;16.316;2023-02-26T01:22:59;2.30;99.90
20815;DHT22;10568;48.176;16.316;2023-02-26T01:25:47;2.30;99.90
20815;DHT22;10568;48.176;16.316;2023-02-26T01:28:14;2.30;99.90
20815;DHT22;10568;48.176;16.316;2023-02-26T01:30:40;2.20;99.90
20815;DHT22;10568;48.176;16.316;2023-02-26T01:36:00;2.20;99.90
20815;DHT22;10568;48.176;16.316;2023-02-26T01:38:36;2.20;99.90
20815;DHT22;10568;48.176;16.316;2023-02-26T01:44:04;2.10;99.90
20815;DHT22;10568;48.176;16.316;2023-02-26T01:49:30;2.00;99.90
20815;DHT22;10568;48.176;16.316;2023-02-26T01:51:59;2.00;99.90
20815;DHT22;10568;48.176;16.316;2023-02-26T01:54:35;2.00;99.90
20815;DHT22;10568;48.176;16.316;2023-02-26T01:57:11;2.00;99.90
20815;DHT22;10568;48.176;16.316;2023-02-26T01:59:43;2.00;99.90
20815;DHT22;10568;48.176;16.316;2023-02-26T02:02:11;1.90;99.90
20815;DHT22;10568;48.176;16.316;2023-02-26T02:04:38;1.90;99.90
20815;DHT22;10568;48.176;16.316;2023-02-26T02:07:05;1.90;99.90
20815;DHT22;10568;48.176;16.316;2023-02-26T02:09:31;1.90;99.90
20815;DHT22;10568;48.176;16.316;2023-02-26T02:14:35;1.90;99.90
20815;DHT22;10568;48.176;16.316;2023-02-26T02:25:25;1.80;99.90
20815;DHT22;10568;48.176;16.316;2023-02-26T02:33:48;1.80;99.90
20815;DHT22;10568;48.176;16.316;2023-02-26T02:36:25;1.80;99.90
20815;DHT22;10568;48.176;16.316;2023-02-26T02:39:04;1.80;99.90
20815;DHT22;10568;48.176;16.316;2023-02-26T02:41:36;1.70;99.90
20815;DHT22;10568;48.176;16.316;2023-02-26T02:44:07;1.70;99.90
20815;DHT22;10568;48.176;16.316;2023-02-26T02:46:38;1.70;99.90
20815;DHT22;10568;48.176;16.316;2023-02-26T02:49:10;1.70;99.90
20815;DHT22;10568;48.176;16.316;2023-02-26T02:54:39;1.70;99.90
20815;DHT22;10568;48.176;16.316;2023-02-26T02:57:18;1.70;99.90
20815;DHT22;10568;48.176;16.316;2023-02-26T02:59:53;1.70;99.90
20815;DHT22;10568;48.176;16.316;2023-02-26T03:02:48;1.80;99.90
20815;DHT22;10568;48.176;16.316;2023-02-26T03:05:15;1.80;99.90
20815;DHT22;10568;48.176;16.316;2023-02-26T03:07:54;1.70;99.90
20815;DHT22;10568;48.176;16.316;2023-02-26T03:10:21;1.70;99.90
20815;DHT22;10568;48.176;16.316;2023-02-26T03:12:47;1.70;99.90
20815;DHT22;10568;48.176;16.316;2023-02-26T03:15:14;1.70;99.90
20815;DHT22;10568;48.176;16.316;2023-02-26T03:17:57;1.70;99.90
20815;DHT22;10568;48.176;16.316;2023-02-26T03:20:37;1.70;99.90
20815;DHT22;10568;48.176;16.316;2023-02-26T03:23:13;1.70;99.90
20815;DHT22;10568;48.176;16.316;2023-02-26T03:28:34;1.70;99.90
20815;DHT22;10568;48.176;16.316;2023-02-26T03:31:10;1.80;99.90
20815;DHT22;10568;48.176;16.316;2023-02-26T03:33:58;1.70;99.90
20815;DHT22;10568;48.176;16.316;2023-02-26T03:36:37;1.70;99.90
20815;DHT22;10568;48.176;16.316;2023-02-26T03:39:21;1.70;99.90
20815;DHT22;10568;48.176;16.316;2023-02-26T03:44:46;1.70;99.90
20815;DHT22;10568;48.176;16.316;2023-02-26T03:47:14;1.70;99.90
20815;DHT22;10568;48.176;16.316;2023-02-26T03:49:53;1.70;99.90
20815;DHT22;10568;48.176;16.316;2023-02-26T03:52:22;1.70;99.90
20815;DHT22;10568;48.176;16.316;2023-02-26T03:54:56;1.70;99.90
20815;DHT22;10568;48.176;16.316;2023-02-26T03:57:23;1.70;99.90
20815;DHT22;10568;48.176;16.316;2023-02-26T03:59:49;1.70;99.90
20815;DHT22;10568;48.176;16.316;2023-02-26T04:02:24;1.70;99.90
20815;DHT22;10568;48.176;16.316;2023-02-26T04:05:18;1.80;99.90
20815;DHT22;10568;48.176;16.316;2023-02-26T04:07:45;1.80;99.90
20815;DHT22;10568;48.176;16.316;2023-02-26T04:10:15;1.80;99.90
20815;DHT22;10568;48.176;16.316;2023-02-26T04:12:41;1.80;99.90
20815;DHT22;10568;48.176;16.316;2023-02-26T04:15:08;1.80;99.90
20815;DHT22;10568;48.176;16.316;2023-02-26T04:17:33;1.80;99.90
20815;DHT22;10568;48.176;16.316;2023-02-26T04:19:59;1.80;99.90
20815;DHT22;10568;48.176;16.316;2023-02-26T04:22:25;1.80;99.90
20815;DHT22;10568;48.176;16.316;2023-02-26T04:24:51;1.80;99.90
20815;DHT22;10568;48.176;16.316;2023-02-26T04:27:17;1.80;99.90
20815;DHT22;10568;48.176;16.316;2023-02-26T04:29:42;1.80;99.90
20815;DHT22;10568;48.176;16.316;2023-02-26T04:32:08;1.80;99.90
20815;DHT22;10568;48.176;16.316;2023-02-26T04:34:34;1.80;99.90
20815;DHT22;10568;48.176;16.316;2023-02-26T04:37:00;1.80;99.90
20815;DHT22;10568;48.176;16.316;2023-02-26T04:39:25;1.70;99.90
20815;DHT22;10568;48.176;16.316;2023-02-26T04:41:51;1.80;99.90
20815;DHT22;10568;48.176;16.316;2023-02-26T04:44:17;1.70;99.90
20815;DHT22;10568;48.176;16.316;2023-02-26T04:46:43;1.70;99.90
20815;DHT22;10568;48.176;16.316;2023-02-26T04:49:09;1.70;99.90
20815;DHT22;10568;48.176;16.316;2023-02-26T04:51:35;1.70;99.90
20815;DHT22;10568;48.176;16.316;2023-02-26T04:54:00;1.70;99.90
20815;DHT22;10568;48.176;16.316;2023-02-26T04:56:26;1.70;99.90
20815;DHT22;10568;48.176;16.316;2023-02-26T04:58:52;1.60;99.90
20815;DHT22;10568;48.176;16.316;2023-02-26T05:01:18;1.60;99.90
20815;DHT22;10568;48.176;16.316;2023-02-26T05:03:44;1.60;99.90
20815;DHT22;10568;48.176;16.316;2023-02-26T05:06:10;1.60;99.90
20815;DHT22;10568;48.176;16.316;2023-02-26T05:08:35;1.50;99.90
20815;DHT22;10568;48.176;16.316;2023-02-26T05:11:06;1.50;99.90
20815;DHT22;10568;48.176;16.316;2023-02-26T05:13:31;1.40;99.90
20815;DHT22;10568;48.176;16.316;2023-02-26T05:15:57;1.40;99.90
20815;DHT22;10568;48.176;16.316;2023-02-26T05:18:23;1.40;99.90
20815;DHT22;10568;48.176;16.316;2023-02-26T05:20:53;1.30;99.90
20815;DHT22;10568;48.176;16.316;2023-02-26T05:25:45;-0.90;99.90
20815;DHT22;10568;48.176;16.316;2023-02-26T05:28:11;1.30;99.90
20815;DHT22;10568;48.176;16.316;2023-02-26T05:30:38;1.30;99.90
20815;DHT22;10568;48.176;16.316;2023-02-26T05:33:05;1.30;99.90
20815;DHT22;10568;48.176;16.316;2023-02-26T05:35:30;1.30;99.90
20815;DHT22;10568;48.176;16.316;2023-02-26T05:37:57;1.30;99.90
20815;DHT22;10568;48.176;16.316;2023-02-26T05:40:23;1.30;99.90
20815;DHT22;10568;48.176;16.316;2023-02-26T05:42:49;1.20;99.90
20815;DHT22;10568;48.176;16.316;2023-02-26T05:45:16;1.30;99.90
20815;DHT22;10568;48.176;16.316;2023-02-26T05:47:42;1.20;99.90
20815;DHT22;10568;48.176;16.316;2023-02-26T05:50:09;1.30;99.90
20815;DHT22;10568;48.176;16.316;2023-02-26T05:52:35;1.20;99.90
20815;DHT22;10568;48.176;16.316;2023-02-26T05:55:00;1.20;99.90
20815;DHT22;10568;48.176;16.316;2023-02-26T05:57:26;1.20;99.90
20815;DHT22;10568;48.176;16.316;2023-02-26T05:59:52;1.20;99.90
20815;DHT22;10568;48.176;16.316;2023-02-26T06:02:18;1.20;99.90
20815;DHT22;10568;48.176;16.316;2023-02-26T06:04:45;1.10;99.90
20815;DHT22;10568;48.176;16.316;2023-02-26T06:07:10;1.00;99.90
20815;DHT22;10568;48.176;16.316;2023-02-26T06:09:36;1.10;99.90
20815;DHT22;10568;48.176;16.316;2023-02-26T06:12:02;1.10;99.90
20815;DHT22;10568;48.176;16.316;2023-02-26T06:14:28;1.10;99.90
20815;DHT22;10568;48.176;16.316;2023-02-26T06:16:54;1.10;99.90
20815;DHT22;10568;48.176;16.316;2023-02-26T06:19:20;1.00;99.90
20815;DHT22;10568;48.176;16.316;2023-02-26T06:21:46;1.00;99.90
20815;DHT22;10568;48.176;16.316;2023-02-26T06:24:12;1.00;99.90
20815;DHT22;10568;48.176;16.316;2023-02-26T06:26:38;1.00;99.90
20815;DHT22;10568;48.176;16.316;2023-02-26T06:29:04;1.00;99.90
20815;DHT22;10568;48.176;16.316;2023-02-26T06:31:30;1.00;99.90
20815;DHT22;10568;48.176;16.316;2023-02-26T06:33:56;1.10;99.90
20815;DHT22;10568;48.176;16.316;2023-02-26T06:36:22;1.10;99.90
20815;DHT22;10568;48.176;16.316;2023-02-26T06:38:47;1.10;99.90
20815;DHT22;10568;48.176;16.316;2023-02-26T06:41:13;1.10;99.90
20815;DHT22;10568;48.176;16.316;2023-02-26T06:43:39;1.10;99.90
20815;DHT22;10568;48.176;16.316;2023-02-26T06:46:05;1.10;99.90
20815;DHT22;10568;48.176;16.316;2023-02-26T06:48:30;1.10;99.90
20815;DHT22;10568;48.176;16.316;2023-02-26T06:50:56;1.20;99.90
20815;DHT22;10568;48.176;16.316;2023-02-26T06:53:22;1.20;99.90
20815;DHT22;10568;48.176;16.316;2023-02-26T06:55:50;1.30;99.90
20815;DHT22;10568;48.176;16.316;2023-02-26T06:58:16;1.30;99.90
20815;DHT22;10568;48.176;16.316;2023-02-26T07:00:43;1.30;99.90
20815;DHT22;10568;48.176;16.316;2023-02-26T07:03:12;1.50;99.90
20815;DHT22;10568;48.176;16.316;2023-02-26T07:05:38;1.50;99.90
20815;DHT22;10568;48.176;16.316;2023-02-26T07:08:04;1.50;99.90
20815;DHT22;10568;48.176;16.316;2023-02-26T07:10:34;1.50;99.90
20815;DHT22;10568;48.176;16.316;2023-02-26T07:13:00;1.60;99.90
20815;DHT22;10568;48.176;16.316;2023-02-26T07:15:26;1.60;99.90
20815;DHT22;10568;48.176;16.316;2023-02-26T07:17:52;1.70;99.90
20815;DHT22;10568;48.176;16.316;2023-02-26T07:20:18;1.70;99.90
20815;DHT22;10568;48.176;16.316;2023-02-26T07:22:44;1.70;99.90
20815;DHT22;10568;48.176;16.316;2023-02-26T07:25:11;1.80;99.90
20815;DHT22;10568;48.176;16.316;2023-02-26T07:27:37;1.80;99.90
20815;DHT22;10568;48.176;16.316;2023-02-26T07:30:04;1.70;99.90
20815;DHT22;10568;48.176;16.316;2023-02-26T07:32:31;1.80;99.90
20815;DHT22;10568;48.176;16.316;2023-02-26T07:34:56;1.90;99.90
20815;DHT22;10568;48.176;16.316;2023-02-26T07:37:23;2.00;99.90
20815;DHT22;10568;48.176;16.316;2023-02-26T07:39:49;2.00;99.90
20815;DHT22;10568;48.176;16.316;2023-02-26T07:45:56;2.10;99.90
20815;DHT22;10568;48.176;16.316;2023-02-26T07:48:21;2.10;99.90
20815;DHT22;10568;48.176;16.316;2023-02-26T07:50:51;2.10;99.90
20815;DHT22;10568;48.176;16.316;2023-02-26T07:53:17;2.10;99.90
20815;DHT22;10568;48.176;16.316;2023-02-26T07:55:43;2.00;99.90
20815;DHT22;10568;48.176;16.316;2023-02-26T07:58:09;2.20;99.90
20815;DHT22;10568;48.176;16.316;2023-02-26T08:00:35;2.10;99.90
20815;DHT22;10568;48.176;16.316;2023-02-26T08:03:01;2.20;99.90
20815;DHT22;10568;48.176;16.316;2023-02-26T08:05:27;2.20;99.90
20815;DHT22;10568;48.176;16.316;2023-02-26T08:07:52;2.30;99.90
20815;DHT22;10568;48.176;16.316;2023-02-26T08:10:18;2.40;99.90
20815;DHT22;10568;48.176;16.316;2023-02-26T08:12:44;2.50;99.90
20815;DHT22;10568;48.176;16.316;2023-02-26T08:15:11;2.50;99.90
20815;DHT22;10568;48.176;16.316;2023-02-26T08:17:40;2.60;99.90
20815;DHT22;10568;48.176;16.316;2023-02-26T08:20:07;2.60;99.90
20815;DHT22;10568;48.176;16.316;2023-02-26T08:22:33;2.70;99.90
20815;DHT22;10568;48.176;16.316;2023-02-26T08:24:59;2.90;99.90
20815;DHT22;10568;48.176;16.316;2023-02-26T08:27:25;3.00;99.90
20815;DHT22;10568;48.176;16.316;2023-02-26T08:29:51;3.10;99.90
20815;DHT22;10568;48.176;16.316;2023-02-26T08:32:18;3.10;99.90
20815;DHT22;10568;48.176;16.316;2023-02-26T08:34:45;3.30;99.90
20815;DHT22;10568;48.176;16.316;2023-02-26T08:37:11;3.20;99.90
20815;DHT22;10568;48.176;16.316;2023-02-26T08:39:38;3.30;99.90
20815;DHT22;10568;48.176;16.316;2023-02-26T08:42:08;3.30;99.90
20815;DHT22;10568;48.176;16.316;2023-02-26T08:44:34;3.30;99.90
20815;DHT22;10568;48.176;16.316;2023-02-26T08:47:00;3.40;99.90
20815;DHT22;10568;48.176;16.316;2023-02-26T08:52:43;3.50;99.90
20815;DHT22;10568;48.176;16.316;2023-02-26T08:55:09;3.70;99.90
20815;DHT22;10568;48.176;16.316;2023-02-26T08:57:35;3.70;99.90
20815;DHT22;10568;48.176;16.316;2023-02-26T09:00:01;3.70;99.90
20815;DHT22;10568;48.176;16.316;2023-02-26T09:02:29;3.40;99.90
20815;DHT22;10568;48.176;16.316;2023-02-26T09:04:55;3.60;99.90
20815;DHT22;10568;48.176;16.316;2023-02-26T09:07:20;3.50;99.90
20815;DHT22;10568;48.176;16.316;2023-02-26T09:09:46;3.50;99.90
20815;DHT22;10568;48.176;16.316;2023-02-26T09:12:12;3.50;99.90
20815;DHT22;10568;48.176;16.316;2023-02-26T09:14:37;3.60;99.90
20815;DHT22;10568;48.176;16.316;2023-02-26T09:17:03;3.70;99.90
20815;DHT22;10568;48.176;16.316;2023-02-26T09:19:29;3.80;99.90
20815;DHT22;10568;48.176;16.316;2023-02-26T09:21:55;4.10;99.90
20815;DHT22;10568;48.176;16.316;2023-02-26T09:24:20;4.30;99.90
20815;DHT22;10568;48.176;16.316;2023-02-26T09:26:46;4.30;99.90
20815;DHT22;10568;48.176;16.316;2023-02-26T09:29:12;4.10;99.90
20815;DHT22;10568;48.176;16.316;2023-02-26T09:31:38;4.00;99.90
20815;DHT22;10568;48.176;16.316;2023-02-26T09:34:04;4.00;99.90
20815;DHT22;10568;48.176;16.316;2023-02-26T09:36:30;4.00;99.90
20815;DHT22;10568;48.176;16.316;2023-02-26T09:38:56;4.10;99.90
20815;DHT22;10568;48.176;16.316;2023-02-26T09:41:49;4.00;99.90
20815;DHT22;10568;48.176;16.316;2023-02-26T09:44:22;4.00;99.90
20815;DHT22;10568;48.176;16.316;2023-02-26T09:52:30;4.30;99.90
20815;DHT22;10568;48.176;16.316;2023-02-26T09:55:04;4.40;99.90
20815;DHT22;10568;48.176;16.316;2023-02-26T09:57:35;4.50;99.90
20815;DHT22;10568;48.176;16.316;2023-02-26T10:02:53;4.60;99.90
20815;DHT22;10568;48.176;16.316;2023-02-26T10:05:28;4.80;99.90
20815;DHT22;10568;48.176;16.316;2023-02-26T10:08:06;4.70;99.90
20815;DHT22;10568;48.176;16.316;2023-02-26T10:10:52;5.20;99.90
20815;DHT22;10568;48.176;16.316;2023-02-26T10:13:50;5.60;99.90
20815;DHT22;10568;48.176;16.316;2023-02-26T10:16:21;5.90;99.90
20815;DHT22;10568;48.176;16.316;2023-02-26T10:18:54;5.60;99.90
20815;DHT22;10568;48.176;16.316;2023-02-26T10:21:29;5.50;99.90
20815;DHT22;10568;48.176;16.316;2023-02-26T10:24:00;5.60;99.90
20815;DHT22;10568;48.176;16.316;2023-02-26T10:26:36;6.00;99.90
20815;DHT22;10568;48.176;16.316;2023-02-26T10:29:21;6.30;99.90
20815;DHT22;10568;48.176;16.316;2023-02-26T10:39:38;7.50;99.90
20815;DHT22;10568;48.176;16.316;2023-02-26T10:42:13;6.90;99.90
20815;DHT22;10568;48.176;16.316;2023-02-26T10:50:09;6.50;99.90
20815;DHT22;10568;48.176;16.316;2023-02-26T10:52:36;7.10;99.90
20815;DHT22;10568;48.176;16.316;2023-02-26T10:57:46;6.60;99.90
20815;DHT22;10568;48.176;16.316;2023-02-26T11:00:16;6.10;99.90
20815;DHT22;10568;48.176;16.316;2023-02-26T11:02:45;5.70;99.90
20815;DHT22;10568;48.176;16.316;2023-02-26T11:05:18;5.40;99.90
20815;DHT22;10568;48.176;16.316;2023-02-26T11:07:48;5.30;99.90
20815;DHT22;10568;48.176;16.316;2023-02-26T11:10:21;5.20;99.90
20815;DHT22;10568;48.176;16.316;2023-02-26T11:12:47;4.90;99.90
20815;DHT22;10568;48.176;16.316;2023-02-26T11:15:22;4.70;99.90
20815;DHT22;10568;48.176;16.316;2023-02-26T11:17:53;4.60;99.90
20815;DHT22;10568;48.176;16.316;2023-02-26T11:20:38;4.60;99.90
20815;DHT22;10568;48.176;16.316;2023-02-26T11:23:11;4.60;99.90
20815;DHT22;10568;48.176;16.316;2023-02-26T11:25:38;4.80;99.90
20815;DHT22;10568;48.176;16.316;2023-02-26T11:28:24;4.90;99.90
20815;DHT22;10568;48.176;16.316;2023-02-26T11:30:51;4.90;99.90
20815;DHT22;10568;48.176;16.316;2023-02-26T11:33:35;5.00;99.90
20815;DHT22;10568;48.176;16.316;2023-02-26T11:36:10;4.90;99.90
20815;DHT22;10568;48.176;16.316;2023-02-26T11:38:37;4.90;99.90
20815;DHT22;10568;48.176;16.316;2023-02-26T11:41:04;4.80;99.90
20815;DHT22;10568;48.176;16.316;2023-02-26T11:43:45;4.80;99.90
20815;DHT22;10568;48.176;16.316;2023-02-26T11:46:13;4.70;99.90
20815;DHT22;10568;48.176;16.316;2023-02-26T11:48:46;4.50;99.90
20815;DHT22;10568;48.176;16.316;2023-02-26T11:51:14;4.10;99.90
20815;DHT22;10568;48.176;16.316;2023-02-26T11:53:48;4.30;99.90
20815;DHT22;10568;48.176;16.316;2023-02-26T11:58:51;4.50;99.90
20815;DHT22;10568;48.176;16.316;2023-02-26T12:01:20;5.00;99.90
20815;DHT22;10568;48.176;16.316;2023-02-26T12:03:51;5.50;99.90
20815;DHT22;10568;48.176;16.316;2023-02-26T12:06:22;5.90;99.90
20815;DHT22;10568;48.176;16.316;2023-02-26T12:08:51;5.80;99.90
20815;DHT22;10568;48.176;16.316;2023-02-26T12:19:44;4.50;99.90
20815;DHT22;10568;48.176;16.316;2023-02-26T12:25:02;4.10;99.90
20815;DHT22;10568;48.176;16.316;2023-02-26T12:27:57;3.90;99.90
20815;DHT22;10568;48.176;16.316;2023-02-26T12:30:42;4.10;99.90
20815;DHT22;10568;48.176;16.316;2023-02-26T12:33:28;4.10;99.90
20815;DHT22;10568;48.176;16.316;2023-02-26T12:36:45;4.20;99.90
20815;DHT22;10568;48.176;16.316;2023-02-26T12:39:08;4.40;99.90
20815;DHT22;10568;48.176;16.316;2023-02-26T12:42:41;4.60;99.90
20815;DHT22;10568;48.176;16.316;2023-02-26T12:50:27;5.10;99.90
20815;DHT22;10568;48.176;16.316;2023-02-26T12:58:48;4.50;99.90
20815;DHT22;10568;48.176;16.316;2023-02-26T13:01:42;4.30;99.90
20815;DHT22;10568;48.176;16.316;2023-02-26T13:09:33;4.10;99.90
20815;DHT22;10568;48.176;16.316;2023-02-26T13:14:52;4.20;99.90
20815;DHT22;10568;48.176;16.316;2023-02-26T13:17:31;4.20;99.90
20815;DHT22;10568;48.176;16.316;2023-02-26T13:20:10;4.30;99.90
20815;DHT22;10568;48.176;16.316;2023-02-26T13:22:44;4.20;99.90
20815;DHT22;10568;48.176;16.316;2023-02-26T13:27:44;4.30;99.90
20815;DHT22;10568;48.176;16.316;2023-02-26T13:30:28;4.30;99.90
20815;DHT22;10568;48.176;16.316;2023-02-26T13:32:58;4.40;99.90
20815;DHT22;10568;48.176;16.316;2023-02-26T13:35:33;4.40;99.90
20815;DHT22;10568;48.176;16.316;2023-02-26T13:38:19;4.40;99.90
20815;DHT22;10568;48.176;16.316;2023-02-26T13:41:08;4.50;99.90
20815;DHT22;10568;48.176;16.316;2023-02-26T13:47:07;4.40;99.90
20815;DHT22;10568;48.176;16.316;2023-02-26T13:52:49;4.10;99.90
20815;DHT22;10568;48.176;16.316;2023-02-26T13:55:44;3.90;99.90
20815;DHT22;10568;48.176;16.316;2023-02-26T14:01:16;3.80;99.90
20815;DHT22;10568;48.176;16.316;2023-02-26T14:03:49;3.80;99.90
20815;DHT22;10568;48.176;16.316;2023-02-26T14:06:34;3.80;99.90
20815;DHT22;10568;48.176;16.316;2023-02-26T14:09:14;3.90;99.90
20815;DHT22;10568;48.176;16.316;2023-02-26T14:14:24;3.90;99.90
20815;DHT22;10568;48.176;16.316;2023-02-26T14:24:59;4.10;99.90
20815;DHT22;10568;48.176;16.316;2023-02-26T14:27:35;4.10;99.90
20815;DHT22;10568;48.176;16.316;2023-02-26T14:32:44;4.20;99.90
20815;DHT22;10568;48.176;16.316;2023-02-26T14:37:48;4.10;99.90
20815;DHT22;10568;48.176;16.316;2023-02-26T14:40:19;4.20;99.90
20815;DHT22;10568;48.176;16.316;2023-02-26T14:42:48;4.20;99.90
20815;DHT22;10568;48.176;16.316;2023-02-26T14:45:29;4.10;99.90
20815;DHT22;10568;48.176;16.316;2023-02-26T14:48:00;4.10;99.90
20815;DHT22;10568;48.176;16.316;2023-02-26T14:50:42;4.10;99.90
20815;DHT22;10568;48.176;16.316;2023-02-26T14:53:41;3.90;99.90
20815;DHT22;10568;48.176;16.316;2023-02-26T15:02:13;3.40;99.90
20815;DHT22;10568;48.176;16.316;2023-02-26T15:07:18;3.30;99.90
20815;DHT22;10568;48.176;16.316;2023-02-26T15:10:15;3.40;99.90
20815;DHT22;10568;48.176;16.316;2023-02-26T15:13:16;3.30;99.90
20815;DHT22;10568;48.176;16.316;2023-02-26T15:21:20;3.20;99.90
20815;DHT22;10568;48.176;16.316;2023-02-26T15:23:54;3.10;99.90
20815;DHT22;10568;48.176;16.316;2023-02-26T15:26:28;3.10;99.90
20815;DHT22;10568;48.176;16.316;2023-02-26T15:28:56;3.10;99.90
20815;DHT22;10568;48.176;16.316;2023-02-26T15:31:46;3.10;99.90
20815;DHT22;10568;48.176;16.316;2023-02-26T15:34:16;3.00;99.90
20815;DHT22;10568;48.176;16.316;2023-02-26T15:36:44;3.10;99.90
20815;DHT22;10568;48.176;16.316;2023-02-26T15:39:14;3.10;99.90
20815;DHT22;10568;48.176;16.316;2023-02-26T15:41:46;3.00;99.90
20815;DHT22;10568;48.176;16.316;2023-02-26T15:44:18;3.00;99.90
20815;DHT22;10568;48.176;16.316;2023-02-26T15:46:49;2.90;99.90
20815;DHT22;10568;48.176;16.316;2023-02-26T15:49:27;3.00;99.90
20815;DHT22;10568;48.176;16.316;2023-02-26T15:51:55;3.00;99.90
20815;DHT22;10568;48.176;16.316;2023-02-26T15:54:24;3.00;99.90
20815;DHT22;10568;48.176;16.316;2023-02-26T15:56:52;3.00;99.90
20815;DHT22;10568;48.176;16.316;2023-02-26T15:59:25;2.90;99.90
20815;DHT22;10568;48.176;16.316;2023-02-26T16:01:53;2.90;99.90
20815;DHT22;10568;48.176;16.316;2023-02-26T16:07:42;2.90;99.90
20815;DHT22;10568;48.176;16.316;2023-02-26T16:10:17;2.90;99.90
20815;DHT22;10568;48.176;16.316;2023-02-26T16:12:46;2.80;99.90
20815;DHT22;10568;48.176;16.316;2023-02-26T16:15:27;2.80;99.90
20815;DHT22;10568;48.176;16.316;2023-02-26T16:17:55;2.80;99.90
20815;DHT22;10568;48.176;16.316;2023-02-26T16:20:25;2.80;99.90
20815;DHT22;10568;48.176;16.316;2023-02-26T16:23:02;2.70;99.90
20815;DHT22;10568;48.176;16.316;2023-02-26T16:28:21;2.60;99.90
20815;DHT22;10568;48.176;16.316;2023-02-26T16:30:52;2.50;99.90
20815;DHT22;10568;48.176;16.316;2023-02-26T16:33:21;2.50;99.90
20815;DHT22;10568;48.176;16.316;2023-02-26T16:36:03;2.40;99.90
20815;DHT22;10568;48.176;16.316;2023-02-26T16:38:44;2.40;99.90
20815;DHT22;10568;48.176;16.316;2023-02-26T16:41:10;2.40;99.90
20815;DHT22;10568;48.176;16.316;2023-02-26T16:46:19;2.40;99.90
20815;DHT22;10568;48.176;16.316;2023-02-26T16:48:54;2.30;99.90
20815;DHT22;10568;48.176;16.316;2023-02-26T16:51:24;2.30;99.90
20815;DHT22;10568;48.176;16.316;2023-02-26T16:56:38;2.20;99.90
20815;DHT22;10568;48.176;16.316;2023-02-26T16:59:27;2.20;99.90
20815;DHT22;10568;48.176;16.316;2023-02-26T17:02:03;2.10;99.90
20815;DHT22;10568;48.176;16.316;2023-02-26T17:04:33;2.20;99.90
20815;DHT22;10568;48.176;16.316;2023-02-26T17:07:08;2.10;99.90
20815;DHT22;10568;48.176;16.316;2023-02-26T17:09:46;2.10;99.90
20815;DHT22;10568;48.176;16.316;2023-02-26T17:12:22;2.10;99.90
20815;DHT22;10568;48.176;16.316;2023-02-26T17:14:55;2.10;99.90
20815;DHT22;10568;48.176;16.316;2023-02-26T17:17:22;2.10;99.90
20815;DHT22;10568;48.176;16.316;2023-02-26T17:19:49;2.10;99.90
20815;DHT22;10568;48.176;16.316;2023-02-26T17:22:20;2.10;99.90
20815;DHT22;10568;48.176;16.316;2023-02-26T17:24:49;2.10;99.90
20815;DHT22;10568;48.176;16.316;2023-02-26T17:27:34;2.00;99.90
20815;DHT22;10568;48.176;16.316;2023-02-26T17:30:05;2.10;99.90
20815;DHT22;10568;48.176;16.316;2023-02-26T17:32:31;2.10;99.90
20815;DHT22;10568;48.176;16.316;2023-02-26T17:34:58;2.10;99.90
20815;DHT22;10568;48.176;16.316;2023-02-26T17:37:31;2.00;99.90
20815;DHT22;10568;48.176;16.316;2023-02-26T17:39:59;2.10;99.90
20815;DHT22;10568;48.176;16.316;2023-02-26T17:42:27;2.00;99.90
20815;DHT22;10568;48.176;16.316;2023-02-26T17:44:54;2.10;99.90
20815;DHT22;10568;48.176;16.316;2023-02-26T17:47:24;2.00;99.90
20815;DHT22;10568;48.176;16.316;2023-02-26T17:49:51;2.10;99.90
20815;DHT22;10568;48.176;16.316;2023-02-26T17:52:18;2.10;99.90
20815;DHT22;10568;48.176;16.316;2023-02-26T17:54:45;2.00;99.90
20815;DHT22;10568;48.176;16.316;2023-02-26T17:57:16;2.10;99.90
20815;DHT22;10568;48.176;16.316;2023-02-26T17:59:42;2.10;99.90
20815;DHT22;10568;48.176;16.316;2023-02-26T18:02:22;2.10;99.90
20815;DHT22;10568;48.176;16.316;2023-02-26T18:04:50;2.00;99.90
20815;DHT22;10568;48.176;16.316;2023-02-26T18:07:18;2.10;99.90
20815;DHT22;10568;48.176;16.316;2023-02-26T18:09:46;2.10;99.90
20815;DHT22;10568;48.176;16.316;2023-02-26T18:12:17;2.00;99.90
20815;DHT22;10568;48.176;16.316;2023-02-26T18:14:44;2.00;99.90
20815;DHT22;10568;48.176;16.316;2023-02-26T18:17:20;2.00;99.90
20815;DHT22;10568;48.176;16.316;2023-02-26T18:19:47;2.00;99.90
20815;DHT22;10568;48.176;16.316;2023-02-26T18:22:15;2.00;99.90
20815;DHT22;10568;48.176;16.316;2023-02-26T18:24:42;1.90;99.90
20815;DHT22;10568;48.176;16.316;2023-02-26T18:27:15;1.90;99.90
20815;DHT22;10568;48.176;16.316;2023-02-26T18:29:43;1.90;99.90
20815;DHT22;10568;48.176;16.316;2023-02-26T18:32:17;1.90;99.90
20815;DHT22;10568;48.176;16.316;2023-02-26T18:34:43;1.80;99.90
20815;DHT22;10568;48.176;16.316;2023-02-26T18:37:15;1.80;99.90
20815;DHT22;10568;48.176;16.316;2023-02-26T18:39:42;1.80;99.90